createdAt,value
2023-03-19T00:00:31.916Z,24.87
2023-03-19T00:03:00.101Z,24.20
2023-03-19T00:05:29.673Z,24.17
2023-03-19T00:07:57.573Z,30.93
2023-03-19T00:10:25.489Z,21.17
2023-03-19T00:12:53.457Z,20.70
2023-03-19T00:15:21.493Z,20.43
2023-03-19T00:17:49.609Z,25.23
2023-03-19T00:20:18.244Z,23.27
2023-03-19T00:22:47.542Z,23.17
2023-03-19T00:25:15.484Z,29.17
2023-03-19T00:27:44.463Z,24.40
2023-03-19T00:30:13.820Z,24.13
2023-03-19T00:32:41.873Z,24.60
2023-03-19T00:35:10.667Z,26.67
2023-03-19T00:37:40.701Z,20.23
2023-03-19T00:40:12.091Z,22.97
2023-03-19T00:42:41.317Z,23.73
2023-03-19T00:45:10.652Z,25.23
2023-03-19T00:47:38.643Z,28.43
2023-03-19T00:50:07.481Z,25.53
2023-03-19T00:52:35.532Z,27.23
2023-03-19T00:55:03.628Z,26.33
2023-03-19T00:57:32.956Z,25.23
2023-03-19T01:00:00.978Z,24.93
2023-03-19T01:02:29.096Z,27.70
2023-03-19T01:04:57.067Z,25.07
2023-03-19T01:07:25.082Z,26.00
2023-03-19T01:09:53.065Z,27.00
2023-03-19T01:12:21.081Z,28.47
2023-03-19T01:14:50.375Z,24.23
2023-03-19T01:17:18.448Z,28.37
2023-03-19T01:19:46.605Z,26.23
2023-03-19T01:22:16.622Z,28.43
2023-03-19T01:24:49.252Z,27.13
2023-03-19T01:27:17.695Z,25.03
2023-03-19T01:29:45.713Z,25.70
2023-03-19T01:32:21.007Z,29.37
2023-03-19T01:35:09.546Z,28.33
2023-03-19T01:37:38.165Z,27.07
2023-03-19T01:40:07.094Z,24.37
2023-03-19T01:42:35.030Z,32.87
2023-03-19T01:45:35.030Z,36.87
2023-03-19T01:48:31.825Z,34.33
2023-03-19T01:51:07.433Z,43.00
2023-03-19T01:53:54.123Z,36.00
2023-03-19T01:56:43.031Z,43.60
2023-03-19T01:59:42.924Z,32.53
2023-03-19T02:02:31.343Z,32.03
2023-03-19T02:05:08.696Z,30.97
2023-03-19T02:07:39.412Z,27.43
2023-03-19T02:10:10.343Z,33.00
2023-03-19T02:12:39.401Z,33.03
2023-03-19T02:15:09.363Z,32.27
2023-03-19T02:17:37.963Z,27.83
2023-03-19T02:20:14.053Z,29.63
2023-03-19T02:22:49.652Z,28.93
2023-03-19T02:25:23.486Z,26.47
2023-03-19T02:27:53.591Z,28.97
2023-03-19T02:30:24.851Z,30.73
2023-03-19T02:32:53.200Z,29.60
2023-03-19T02:35:21.374Z,31.60
2023-03-19T02:37:49.592Z,28.03
2023-03-19T02:40:23.639Z,33.53
2023-03-19T02:42:52.967Z,28.67
2023-03-19T02:45:21.329Z,30.33
2023-03-19T02:47:49.325Z,31.33
2023-03-19T02:50:17.398Z,23.60
2023-03-19T02:52:45.824Z,28.90
2023-03-19T02:55:18.363Z,31.63
2023-03-19T02:57:46.844Z,35.90
2023-03-19T03:00:18.741Z,33.60
2023-03-19T03:02:46.816Z,29.07
2023-03-19T03:05:15.342Z,29.27
2023-03-19T03:07:44.939Z,33.00
2023-03-19T03:10:13.542Z,32.60
2023-03-19T03:12:41.537Z,27.07
2023-03-19T03:15:10.478Z,31.73
2023-03-19T03:17:40.840Z,29.23
2023-03-19T03:20:11.488Z,30.77
2023-03-19T03:22:39.537Z,27.27
2023-03-19T03:25:09.127Z,27.73
2023-03-19T03:27:37.914Z,31.00
2023-03-19T03:30:08.090Z,28.80
2023-03-19T03:32:36.731Z,28.03
2023-03-19T03:35:08.245Z,32.00
2023-03-19T03:37:36.635Z,32.30
2023-03-19T03:40:08.291Z,29.70
2023-03-19T03:42:38.011Z,31.37
2023-03-19T03:45:10.707Z,30.70
2023-03-19T03:47:39.504Z,49.77
2023-03-19T03:50:10.909Z,43.73
2023-03-19T03:52:41.016Z,45.27
2023-03-19T03:55:10.132Z,45.27
2023-03-19T03:57:38.305Z,44.53
2023-03-19T04:00:07.021Z,53.57
2023-03-19T04:02:41.382Z,62.00
2023-03-19T04:05:14.487Z,46.57
2023-03-19T04:07:42.812Z,52.83
2023-03-19T04:10:12.704Z,65.93
2023-03-19T04:12:41.433Z,54.07
2023-03-19T04:15:11.888Z,48.63
2023-03-19T04:17:42.625Z,47.67
2023-03-19T04:20:12.490Z,50.23
2023-03-19T04:22:41.840Z,62.03
2023-03-19T04:25:10.611Z,49.40
2023-03-19T04:27:39.985Z,59.33
2023-03-19T04:30:11.337Z,55.37
2023-03-19T04:32:39.857Z,39.20
2023-03-19T04:35:08.697Z,43.23
2023-03-19T04:37:36.834Z,37.40
2023-03-19T04:40:07.773Z,31.53
2023-03-19T04:42:38.101Z,34.97
2023-03-19T04:45:11.837Z,38.97
2023-03-19T04:47:41.202Z,35.57
2023-03-19T04:50:10.883Z,34.00
2023-03-19T04:52:39.336Z,31.03
2023-03-19T04:55:09.760Z,34.97
2023-03-19T04:57:49.679Z,33.83
2023-03-19T05:00:21.959Z,31.83
2023-03-19T05:02:50.251Z,33.80
2023-03-19T05:05:18.606Z,33.40
2023-03-19T05:07:47.429Z,36.23
2023-03-19T05:10:16.979Z,35.50
2023-03-19T05:12:45.440Z,30.10
2023-03-19T05:15:13.483Z,33.57
2023-03-19T05:17:49.922Z,30.23
2023-03-19T05:20:28.125Z,26.53
2023-03-19T05:23:02.857Z,32.23
2023-03-19T05:25:42.733Z,30.97
2023-03-19T05:28:13.345Z,27.83
2023-03-19T05:30:43.246Z,35.80
2023-03-19T05:33:18.885Z,29.00
2023-03-19T05:35:47.240Z,29.07
2023-03-19T05:38:22.628Z,29.90
2023-03-19T05:40:58.790Z,33.50
2023-03-19T05:43:34.194Z,27.10
2023-03-19T05:46:06.649Z,29.83
2023-03-19T05:48:35.236Z,29.27
2023-03-19T05:51:05.838Z,32.17
2023-03-19T05:53:38.514Z,30.60
2023-03-19T05:56:33.736Z,31.80
2023-03-19T05:59:29.302Z,28.93
2023-03-19T06:02:14.619Z,30.30
2023-03-19T06:04:42.971Z,34.10
2023-03-19T06:07:11.617Z,36.00
2023-03-19T06:09:39.521Z,38.03
2023-03-19T06:12:09.415Z,32.57
2023-03-19T06:14:55.722Z,32.13
2023-03-19T06:18:01.849Z,28.43
2023-03-19T06:20:30.066Z,27.13
2023-03-19T06:22:58.925Z,26.70
2023-03-19T06:25:27.057Z,27.83
2023-03-19T06:27:56.383Z,26.03
2023-03-19T06:30:38.032Z,30.87
2023-03-19T06:33:20.470Z,26.43
2023-03-19T06:35:49.715Z,27.67
2023-03-19T06:38:18.136Z,29.00
2023-03-19T06:40:46.227Z,35.63
2023-03-19T06:43:16.001Z,24.30
2023-03-19T06:45:43.989Z,24.53
2023-03-19T06:48:12.031Z,27.13
2023-03-19T06:50:40.130Z,28.93
2023-03-19T06:53:09.273Z,26.90
2023-03-19T06:55:37.522Z,27.40
2023-03-19T06:58:05.547Z,25.97
2023-03-19T07:00:35.183Z,31.93
2023-03-19T07:03:03.253Z,26.37
2023-03-19T07:05:31.222Z,25.50
2023-03-19T07:07:59.191Z,29.33
2023-03-19T07:10:27.096Z,25.97
2023-03-19T07:12:55.072Z,26.80
2023-03-19T07:15:23.027Z,26.03
2023-03-19T07:17:52.321Z,27.20
2023-03-19T07:20:20.442Z,27.03
2023-03-19T07:22:48.396Z,22.83
2023-03-19T07:25:16.591Z,28.63
2023-03-19T07:27:45.246Z,28.03
2023-03-19T07:30:14.569Z,24.00
2023-03-19T07:32:42.875Z,29.77
2023-03-19T07:35:14.187Z,24.90
2023-03-19T07:37:43.209Z,27.97
2023-03-19T07:40:12.605Z,25.43
2023-03-19T07:42:40.762Z,25.70
2023-03-19T07:45:09.735Z,28.00
2023-03-19T07:47:37.685Z,26.37
2023-03-19T07:50:06.438Z,23.37
2023-03-19T07:52:36.245Z,29.07
2023-03-19T07:55:04.731Z,29.37
2023-03-19T07:57:33.067Z,25.87
2023-03-19T08:00:01.025Z,25.30
2023-03-19T08:02:29.147Z,25.63
2023-03-19T08:04:57.144Z,27.93
2023-03-19T08:07:25.513Z,25.40
2023-03-19T08:09:54.821Z,24.07
2023-03-19T08:12:22.721Z,27.20
2023-03-19T08:14:50.719Z,25.50
2023-03-19T08:17:18.790Z,25.20
2023-03-19T08:19:46.877Z,26.83
2023-03-19T08:22:15.000Z,26.20
2023-03-19T08:24:42.955Z,25.37
2023-03-19T08:27:12.459Z,25.60
2023-03-19T08:29:40.582Z,26.87
2023-03-19T08:32:09.347Z,26.00
2023-03-19T08:34:37.308Z,23.37
2023-03-19T08:37:05.875Z,28.70
2023-03-19T08:39:33.878Z,28.87
2023-03-19T08:42:01.834Z,26.10
2023-03-19T08:44:31.208Z,24.63
2023-03-19T08:46:59.141Z,23.93
2023-03-19T08:49:27.139Z,22.80
2023-03-19T08:51:55.103Z,25.07
2023-03-19T08:54:23.261Z,26.37
2023-03-19T08:56:51.299Z,24.13
2023-03-19T08:59:19.376Z,28.67
2023-03-19T09:01:52.185Z,24.90
2023-03-19T09:04:20.481Z,26.27
2023-03-19T09:06:51.391Z,24.53
2023-03-19T09:09:20.000Z,24.37
2023-03-19T09:11:48.458Z,26.20
2023-03-19T09:14:19.864Z,23.63
2023-03-19T09:16:49.807Z,27.07
2023-03-19T09:19:17.902Z,24.00
2023-03-19T09:21:46.357Z,24.20
2023-03-19T09:24:14.272Z,21.37
2023-03-19T09:26:42.221Z,24.77
2023-03-19T09:29:10.234Z,24.43
2023-03-19T09:31:38.388Z,21.63
2023-03-19T09:34:08.898Z,20.83
2023-03-19T09:36:37.931Z,20.97
2023-03-19T09:39:06.803Z,18.13
2023-03-19T09:41:41.875Z,19.37
2023-03-19T09:44:15.492Z,23.93
2023-03-19T09:46:50.068Z,19.90
2023-03-19T09:49:25.055Z,23.03
2023-03-19T09:51:55.363Z,17.17
2023-03-19T09:54:33.918Z,17.60
2023-03-19T09:57:02.620Z,20.20
2023-03-19T09:59:31.070Z,20.47
2023-03-19T10:02:05.556Z,19.67
2023-03-19T10:04:43.144Z,18.30
2023-03-19T10:07:25.527Z,19.03
2023-03-19T10:10:05.247Z,21.17
2023-03-19T10:12:46.514Z,23.17
2023-03-19T10:15:20.716Z,20.00
2023-03-19T10:17:58.050Z,20.83
2023-03-19T10:20:44.086Z,20.97
2023-03-19T10:23:36.894Z,19.67
2023-03-19T10:26:09.891Z,19.73
2023-03-19T10:28:38.354Z,17.50
2023-03-19T10:31:17.951Z,21.07
2023-03-19T10:33:53.163Z,18.30
2023-03-19T10:36:27.543Z,21.23
2023-03-19T10:38:56.109Z,16.93
2023-03-19T10:41:42.714Z,17.83
2023-03-19T10:44:20.030Z,19.20
2023-03-19T10:46:48.192Z,24.13
2023-03-19T10:49:16.994Z,26.10
2023-03-19T10:51:47.299Z,18.47
2023-03-19T10:54:21.530Z,18.70
2023-03-19T10:56:50.504Z,18.97
2023-03-19T10:59:27.841Z,17.67
2023-03-19T11:02:00.504Z,17.33
2023-03-19T11:04:29.991Z,16.70
2023-03-19T11:07:07.254Z,16.10
2023-03-19T11:09:37.452Z,17.30
2023-03-19T11:12:16.032Z,17.57
2023-03-19T11:14:46.289Z,17.57
2023-03-19T11:17:22.600Z,17.53
2023-03-19T11:19:53.453Z,22.30
2023-03-19T11:22:28.300Z,20.70
2023-03-19T11:24:57.954Z,21.00
2023-03-19T11:27:31.616Z,17.83
2023-03-19T11:30:00.008Z,16.37
2023-03-19T11:32:59.335Z,17.37
2023-03-19T11:35:33.058Z,16.90
2023-03-19T11:38:04.677Z,17.90
2023-03-19T11:40:43.915Z,15.70
2023-03-19T11:43:51.821Z,19.40
2023-03-19T11:46:32.305Z,17.73
2023-03-19T11:49:39.050Z,17.07
2023-03-19T11:52:15.880Z,18.80
2023-03-19T11:54:56.747Z,14.00
2023-03-19T11:57:35.693Z,18.00
2023-03-19T12:00:11.772Z,15.07
2023-03-19T12:03:10.181Z,16.33
2023-03-19T12:05:51.070Z,16.83
2023-03-19T12:08:31.345Z,14.90
2023-03-19T12:11:18.847Z,16.27
2023-03-19T12:14:01.096Z,15.23
2023-03-19T12:16:44.163Z,15.97
2023-03-19T12:19:38.084Z,17.53
2023-03-19T12:22:16.435Z,14.07
2023-03-19T12:25:00.621Z,15.97
2023-03-19T12:27:35.115Z,15.77
2023-03-19T12:30:13.220Z,15.50
2023-03-19T12:33:11.524Z,15.77
2023-03-19T12:35:42.019Z,16.70
2023-03-19T12:38:18.404Z,15.17
2023-03-19T12:40:51.886Z,15.17
2023-03-19T12:43:26.818Z,15.00
2023-03-19T12:46:01.419Z,14.17
2023-03-19T12:48:32.666Z,13.87
2023-03-19T12:51:06.527Z,15.53
2023-03-19T12:53:41.527Z,16.50
2023-03-19T12:56:14.173Z,15.83
2023-03-19T12:58:56.247Z,18.83
2023-03-19T13:01:31.244Z,19.93
2023-03-19T13:04:04.474Z,21.87
2023-03-19T13:06:37.560Z,16.60
2023-03-19T13:09:12.888Z,15.87
2023-03-19T13:11:47.731Z,16.20
2023-03-19T13:14:23.183Z,18.40
2023-03-19T13:16:58.665Z,17.93
2023-03-19T13:19:33.151Z,15.33
2023-03-19T13:22:05.615Z,18.07
2023-03-19T13:24:38.426Z,16.60
2023-03-19T13:27:09.351Z,15.73
2023-03-19T13:29:39.049Z,17.93
2023-03-19T13:32:09.107Z,17.90
2023-03-19T13:34:38.341Z,18.10
2023-03-19T13:37:13.912Z,17.17
2023-03-19T13:39:43.210Z,19.03
2023-03-19T13:42:25.024Z,14.00
2023-03-19T13:44:57.176Z,16.10
2023-03-19T13:47:43.377Z,19.23
2023-03-19T13:50:27.503Z,14.80
2023-03-19T13:53:13.542Z,16.17
2023-03-19T13:55:52.251Z,15.27
2023-03-19T13:58:43.053Z,23.00
2023-03-19T14:01:44.532Z,17.17
2023-03-19T14:04:21.961Z,21.17
2023-03-19T14:06:52.063Z,18.67
2023-03-19T14:09:38.343Z,15.20
2023-03-19T14:12:23.192Z,17.07
2023-03-19T14:14:54.493Z,13.07
2023-03-19T14:17:27.529Z,12.40
2023-03-19T14:19:55.855Z,13.73
2023-03-19T14:22:36.801Z,15.47
2023-03-19T14:25:17.707Z,13.60
2023-03-19T14:27:49.186Z,12.30
2023-03-19T14:30:28.384Z,16.07
2023-03-19T14:33:02.360Z,18.13
2023-03-19T14:35:34.611Z,15.47
2023-03-19T14:38:03.839Z,16.37
2023-03-19T14:40:39.422Z,13.87
2023-03-19T14:43:34.601Z,17.13
2023-03-19T14:46:04.148Z,13.10
2023-03-19T14:49:13.924Z,13.33
2023-03-19T14:51:58.692Z,14.07
2023-03-19T14:54:37.007Z,16.30
2023-03-19T14:57:09.443Z,12.77
2023-03-19T14:59:41.178Z,13.27
2023-03-19T15:02:26.372Z,13.40
2023-03-19T15:04:55.813Z,13.90
2023-03-19T15:07:31.610Z,13.83
2023-03-19T15:10:06.292Z,17.00
2023-03-19T15:12:59.320Z,13.10
2023-03-19T15:15:42.995Z,13.60
2023-03-19T15:18:13.247Z,19.13
2023-03-19T15:20:45.625Z,15.27
2023-03-19T15:23:27.222Z,27.47
2023-03-19T15:25:57.876Z,20.53
2023-03-19T15:28:28.061Z,35.60
2023-03-19T15:31:05.797Z,32.13
2023-03-19T15:33:46.115Z,23.13
2023-03-19T15:36:19.021Z,19.03
2023-03-19T15:38:52.861Z,17.53
2023-03-19T15:41:21.996Z,16.70
2023-03-19T15:43:50.453Z,17.03
2023-03-19T15:46:23.522Z,16.80
2023-03-19T15:48:56.699Z,13.00
2023-03-19T15:51:27.228Z,15.50
2023-03-19T15:53:56.925Z,17.57
2023-03-19T15:56:25.874Z,12.47
2023-03-19T15:58:58.238Z,12.80
2023-03-19T16:01:27.881Z,12.67
2023-03-19T16:04:00.710Z,12.50
2023-03-19T16:06:31.577Z,14.57
2023-03-19T16:09:20.828Z,16.47
2023-03-19T16:11:49.179Z,47.33
2023-03-19T16:14:25.854Z,64.63
2023-03-19T16:16:59.887Z,55.53
2023-03-19T16:19:33.672Z,49.73
2023-03-19T16:22:02.552Z,66.57
2023-03-19T16:24:37.644Z,69.50
2023-03-19T16:27:10.890Z,59.83
2023-03-19T16:29:41.672Z,82.20
2023-03-19T16:32:22.686Z,114.10
2023-03-19T16:34:53.856Z,133.37
2023-03-19T16:37:39.792Z,90.13
2023-03-19T16:40:42.534Z,92.40
2023-03-19T16:43:18.116Z,88.50
2023-03-19T16:45:50.302Z,88.23
2023-03-19T16:48:18.373Z,99.00
2023-03-19T16:50:47.405Z,145.07
2023-03-19T16:53:26.725Z,102.13
2023-03-19T16:55:57.642Z,167.23
2023-03-19T16:58:30.668Z,139.60
2023-03-19T17:00:59.358Z,148.30
2023-03-19T17:03:30.094Z,129.30
2023-03-19T17:05:58.375Z,130.90
2023-03-19T17:08:26.436Z,99.97
2023-03-19T17:10:56.385Z,89.43
2023-03-19T17:13:28.242Z,78.00
2023-03-19T17:15:58.013Z,63.57
2023-03-19T17:18:28.782Z,54.87
2023-03-19T17:21:00.043Z,69.03
2023-03-19T17:23:28.159Z,61.50
2023-03-19T17:25:58.319Z,69.00
2023-03-19T17:28:26.363Z,74.87
2023-03-19T17:30:54.394Z,70.13
2023-03-19T17:33:25.140Z,86.30
2023-03-19T17:35:54.671Z,108.57
2023-03-19T17:38:24.544Z,102.13
2023-03-19T17:40:52.522Z,108.93
2023-03-19T17:43:21.882Z,100.30
2023-03-19T17:45:50.621Z,102.80
2023-03-19T17:48:22.500Z,100.97
2023-03-19T17:50:51.326Z,98.10
2023-03-19T17:53:19.546Z,108.27
2023-03-19T17:55:47.661Z,94.87
2023-03-19T17:58:18.200Z,74.50
2023-03-19T18:00:48.866Z,70.20
2023-03-19T18:03:19.090Z,61.80
2023-03-19T18:05:47.385Z,63.57
2023-03-19T18:08:17.247Z,67.80
2023-03-19T18:10:45.828Z,68.70
2023-03-19T18:13:14.053Z,85.87
2023-03-19T18:15:44.044Z,78.07
2023-03-19T18:18:17.169Z,85.47
2023-03-19T18:20:46.699Z,64.93
2023-03-19T18:23:16.073Z,90.43
2023-03-19T18:25:45.410Z,92.73
2023-03-19T18:28:13.525Z,85.10
2023-03-19T18:30:43.019Z,84.77
2023-03-19T18:33:17.544Z,94.77
2023-03-19T18:35:46.646Z,92.77
2023-03-19T18:38:17.590Z,84.30
2023-03-19T18:40:45.680Z,86.60
2023-03-19T18:43:16.042Z,80.60
2023-03-19T18:45:46.511Z,84.57
2023-03-19T18:48:25.728Z,84.47
2023-03-19T18:50:54.127Z,86.50
2023-03-19T18:53:22.200Z,78.17
2023-03-19T18:55:50.470Z,95.20
2023-03-19T18:58:22.015Z,84.17
2023-03-19T19:00:50.850Z,89.50
2023-03-19T19:03:21.177Z,79.83
2023-03-19T19:05:53.680Z,86.40
2023-03-19T19:08:21.981Z,91.53
2023-03-19T19:10:52.268Z,84.53
2023-03-19T19:13:23.623Z,88.00
2023-03-19T19:15:53.058Z,121.47
2023-03-19T19:18:23.450Z,118.23
2023-03-19T19:20:54.544Z,106.57
2023-03-19T19:23:26.644Z,104.43
2023-03-19T19:25:56.101Z,100.73
2023-03-19T19:28:27.639Z,102.43
2023-03-19T19:30:57.483Z,101.50
2023-03-19T19:33:27.733Z,100.90
2023-03-19T19:35:57.349Z,92.87
2023-03-19T19:38:25.478Z,88.30
2023-03-19T19:40:58.252Z,91.43
2023-03-19T19:43:30.702Z,98.83
2023-03-19T19:45:59.699Z,93.80
2023-03-19T19:48:29.486Z,89.23
2023-03-19T19:50:58.821Z,91.97
2023-03-19T19:53:27.514Z,93.87
2023-03-19T19:55:55.564Z,114.70
2023-03-19T19:58:26.546Z,97.47
2023-03-19T20:01:03.311Z,122.60
2023-03-19T20:03:37.898Z,168.33
2023-03-19T20:06:07.608Z,141.50
2023-03-19T20:08:35.580Z,126.90
2023-03-19T20:11:03.984Z,126.23
2023-03-19T20:13:34.620Z,144.17
2023-03-19T20:16:03.753Z,133.37
2023-03-19T20:18:35.667Z,129.10
2023-03-19T20:21:04.214Z,129.07
2023-03-19T20:23:33.676Z,139.30
2023-03-19T20:26:02.811Z,135.70
2023-03-19T20:28:35.458Z,121.23
2023-03-19T20:31:05.102Z,123.13
2023-03-19T20:33:34.459Z,110.60
2023-03-19T20:36:03.186Z,122.53
2023-03-19T20:38:31.305Z,123.20
2023-03-19T20:41:03.647Z,118.73
2023-03-19T20:43:33.657Z,109.53
2023-03-19T20:46:04.298Z,114.00
2023-03-19T20:48:33.859Z,109.40
2023-03-19T20:51:03.458Z,106.80
2023-03-19T20:53:31.590Z,119.73
2023-03-19T20:56:03.399Z,102.87
2023-03-19T20:58:34.820Z,108.07
2023-03-19T21:01:03.049Z,108.27
2023-03-19T21:03:32.543Z,104.63
2023-03-19T21:06:02.409Z,111.17
2023-03-19T21:08:33.356Z,105.97
2023-03-19T21:11:03.376Z,101.77
2023-03-19T21:13:31.889Z,98.27
2023-03-19T21:16:00.029Z,107.00
2023-03-19T21:18:28.089Z,100.63
2023-03-19T21:20:57.700Z,103.97
2023-03-19T21:23:30.144Z,101.90
2023-03-19T21:25:58.720Z,91.03
2023-03-19T21:28:31.190Z,96.40
2023-03-19T21:30:59.210Z,91.13
2023-03-19T21:33:28.854Z,90.63
2023-03-19T21:35:58.403Z,94.17
2023-03-19T21:38:27.039Z,94.80
2023-03-19T21:40:57.915Z,86.17
2023-03-19T21:43:33.730Z,87.23
2023-03-19T21:46:13.994Z,83.67
2023-03-19T21:48:50.586Z,76.87
2023-03-19T21:51:18.699Z,78.87
2023-03-19T21:53:47.671Z,79.23
2023-03-19T21:56:21.698Z,73.97
2023-03-19T21:58:52.282Z,84.73
2023-03-19T22:01:23.502Z,80.83
2023-03-19T22:03:52.286Z,71.63
2023-03-19T22:06:22.020Z,76.43
2023-03-19T22:08:51.069Z,86.87
2023-03-19T22:11:23.821Z,80.80
2023-03-19T22:13:53.463Z,70.40
2023-03-19T22:16:24.114Z,72.80
2023-03-19T22:18:53.209Z,83.47
2023-03-19T22:21:23.650Z,70.77
2023-03-19T22:23:52.422Z,65.93
2023-03-19T22:26:30.052Z,67.17
2023-03-19T22:29:01.500Z,69.37
2023-03-19T22:31:30.604Z,70.77
2023-03-19T22:33:59.218Z,65.93
2023-03-19T22:36:27.262Z,67.97
2023-03-19T22:38:55.394Z,58.03
2023-03-19T22:41:27.670Z,60.40
2023-03-19T22:43:57.458Z,62.63
2023-03-19T22:46:27.650Z,64.93
2023-03-19T22:48:56.026Z,56.47
2023-03-19T22:51:25.512Z,55.93
2023-03-19T22:53:53.947Z,53.93
2023-03-19T22:56:23.224Z,65.03
2023-03-19T22:58:51.439Z,52.00
2023-03-19T23:01:31.394Z,68.70
2023-03-19T23:04:11.717Z,57.07
2023-03-19T23:06:39.666Z,56.43
2023-03-19T23:09:08.123Z,55.00
2023-03-19T23:11:39.347Z,76.67
2023-03-19T23:14:15.324Z,55.83
2023-03-19T23:16:51.620Z,50.97
2023-03-19T23:19:22.192Z,57.57
2023-03-19T23:21:50.664Z,65.77
2023-03-19T23:24:19.788Z,87.87
2023-03-19T23:26:49.607Z,69.97
2023-03-19T23:29:24.246Z,57.53
2023-03-19T23:31:53.770Z,65.87
2023-03-19T23:34:22.136Z,69.60
2023-03-19T23:36:51.098Z,61.87
2023-03-19T23:39:19.532Z,63.27
2023-03-19T23:41:50.965Z,58.17
2023-03-19T23:44:19.598Z,65.83
2023-03-19T23:46:49.308Z,56.67
2023-03-19T23:49:26.674Z,57.33
2023-03-19T23:51:54.604Z,57.10
2023-03-19T23:54:29.674Z,56.73
2023-03-19T23:56:59.605Z,55.23
2023-03-19T23:59:30.746Z,55.37
